Time;durP1;ratioP1;P1;durP2;ratioP2;P2;SDS_P1;SDS_P2;PMS_P1;PMS_P2;Temp;Humidity;BMP_temperature;BMP_pressure;BME280_temperature;BME280_humidity;BME280_pressure;Samples;Min_cycle;Max_cycle;Signal;HPM_P1;HPM_P2
2022/11/15 00:02:32;;;;;;;106.90;60.30;;;;;;;;;;5051407;28;20032;-78
2022/11/15 00:10:48;;;;;;;102.63;57.22;;;;;;;;;;3188655;26;20051;-79
2022/11/15 00:13:28;;;;;;;102.53;57.85;;;;;;;;;;5056577;28;20481;-79
2022/11/15 00:16:26;;;;;;;103.97;59.10;;;;;;;;;;5053814;28;20028;-79
2022/11/15 00:19:17;;;;;;;;;;;;;;;;;;;;;
2022/11/15 00:22:38;;;;;;;104.55;59.65;;;;;;;;;;5069284;28;20096;-79
2022/11/15 00:25:42;;;;;;;96.93;56.88;;;;;;;;;;5075663;28;20475;-79
2022/11/15 00:33:34;;;;;;;101.50;59.08;;;;;;;;;;5754379;23;20478;-76
2022/11/15 00:36:36;;;;;;;109.38;61.17;;;;;;;;;;5069198;28;20052;-79
2022/11/15 00:42:06;;;;;;;98.25;58.08;;;;;;;;;;5010355;28;20183;-78
2022/11/15 01:08:58;;;;;;;110.90;60.28;;;;;;;;;;5019939;28;20136;-78
2022/11/15 01:11:32;;;;;;;108.07;60.72;;;;;;;;;;5005887;28;20033;-80
2022/11/15 01:14:10;;;;;;;107.20;58.50;;;;;;;;;;5023521;28;20026;-79
2022/11/15 01:43:24;;;;;;;140.82;65.32;;;;;;;;;;5060625;28;20525;-78
2022/11/15 01:49:04;;;;;;;138.48;66.25;;;;;;;;;;5066328;22;20144;-81
2022/11/15 01:51:43;;;;;;;143.88;66.53;;;;;;;;;;5046371;28;20021;-79
2022/11/15 01:57:21;;;;;;;134.73;65.45;;;;;;;;;;5064708;28;20033;-78
2022/11/15 01:59:55;;;;;;;137.27;65.93;;;;;;;;;;5094904;22;20059;-79
2022/11/15 02:02:52;;;;;;;145.52;66.82;;;;;;;;;;5059094;28;20040;-79
2022/11/15 02:34:59;;;;;;;156.02;68.55;;;;;;;;;;2780805;26;20063;-78
2022/11/15 03:03:48;;;;;;;;;;;;;;;;;;;;;
2022/11/15 03:09:56;;;;;;;;;;;;;;;;;;;;;
2022/11/15 03:13:03;;;;;;;147.13;63.97;;;;;;;;;;5036167;28;20028;-79
2022/11/15 03:16:10;;;;;;;174.27;68.45;;;;;;;;;;4944056;29;20031;-79
2022/11/15 03:33:25;;;;;;;;;;;;;;;;;;;;;
2022/11/15 03:46:17;;;;;;;;;;;;;;;;;;;;;
2022/11/15 03:52:29;;;;;;;143.38;60.67;;;;;;;;;;4985540;28;20022;-80
2022/11/15 04:07:58;;;;;;;147.23;62.53;;;;;;;;;;5052717;28;20449;-79
2022/11/15 04:11:04;;;;;;;;;;;;;;;;;;;;;
2022/11/15 04:17:35;;;;;;;;;;;;;;;;;;;;;
2022/11/15 04:26:26;;;;;;;116.68;54.00;;;;;;;;;;5072594;28;20051;-83
2022/11/15 04:41:45;;;;;;;;;;;;;;;;;;;;;
2022/11/15 04:44:56;;;;;;;;;;;;;;;;;;;;;
2022/11/15 04:47:39;;;;;;;123.15;54.45;;;;;;;;;;4990714;28;20036;-80
2022/11/15 04:50:39;;;;;;;127.15;53.80;;;;;;;;;;5056717;28;20175;-79
2022/11/15 06:02:01;;;;;;;102.18;49.63;;;;;;;;;;1286254;22;20354;-80
2022/11/15 06:04:28;;;;;;;;;;;;;;;;;;;;;
2022/11/15 06:07:49;;;;;;;;;;;;;;;;;;;;;
2022/11/15 06:10:29;;;;;;;111.95;50.50;;;;;;;;;;4984782;28;20033;-79
2022/11/15 06:16:57;;;;;;;106.38;49.83;;;;;;;;;;4987079;28;20173;-77
2022/11/15 06:19:42;;;;;;;111.32;50.63;;;;;;;;;;5176308;23;20416;-78
2022/11/15 06:25:59;;;;;;;113.97;51.38;;;;;;;;;;5017023;28;20042;-78
2022/11/15 06:28:43;;;;;;;110.28;51.70;;;;;;;;;;5017211;28;20037;-79
2022/11/15 06:35:45;;;;;;;116.40;53.00;;;;;;;;;;4973699;28;20045;-78
2022/11/15 06:37:40;;;;;;;103.28;48.30;;;;;;;;;;4994332;28;20029;-72
2022/11/15 06:40:07;;;;;;;101.85;50.83;;;;;;;;;;5018094;28;20036;-71
2022/11/15 06:42:33;;;;;;;106.22;51.65;;;;;;;;;;5016440;28;20541;-72
2022/11/15 06:44:59;;;;;;;97.07;48.72;;;;;;;;;;5025593;28;20030;-72
2022/11/15 06:47:31;;;;;;;103.18;50.35;;;;;;;;;;5023710;28;20026;-78
2022/11/15 06:49:57;;;;;;;110.20;50.65;;;;;;;;;;5012161;28;20053;-79
2022/11/15 06:52:32;;;;;;;104.53;50.35;;;;;;;;;;5033344;28;20026;-79
2022/11/15 06:54:58;;;;;;;98.43;47.25;;;;;;;;;;5015157;28;20415;-77
2022/11/15 06:57:24;;;;;;;101.53;47.78;;;;;;;;;;5011896;28;20018;-79
2022/11/15 07:00:04;;;;;;;95.45;48.53;;;;;;;;;;5006260;23;20049;-78
2022/11/15 07:02:30;;;;;;;92.82;47.35;;;;;;;;;;5014174;28;20041;-78
2022/11/15 07:05:06;;;;;;;86.57;45.10;;;;;;;;;;5017631;28;20049;-79
2022/11/15 07:10:24;;;;;;;65.43;34.75;;;;;;;;;;5029991;23;20108;-81
2022/11/15 07:13:09;;;;;;;79.13;42.08;;;;;;;;;;5014666;28;20113;-78
2022/11/15 07:16:04;;;;;;;;;;;;;;;;;;;;;
2022/11/15 07:21:50;;;;;;;;;;;;;;;;;;4922586;29;20136;-77
2022/11/15 07:24:48;;;;;;;76.03;40.10;;;;;;;;;;4929523;29;19915;-78
2022/11/15 07:27:27;;;;;;;70.38;39.30;;;;;;;;;;4919872;29;20426;-77
2022/11/15 07:30:07;;;;;;;69.18;38.97;;;;;;;;;;4954593;28;20030;-78
2022/11/15 07:33:26;;;;;;;;;;;;;;;;;;;;;
2022/11/15 07:51:41;;;;;;;61.05;34.58;;;;;;;;;;4962181;28;20034;-78
2022/11/15 07:54:16;;;;;;;63.40;35.75;;;;;;;;;;5008136;28;20022;-79
2022/11/15 07:56:59;;;;;;;55.08;32.55;;;;;;;;;;4985408;28;20026;-79
2022/11/15 07:59:30;;;;;;;49.53;30.98;;;;;;;;;;5011938;28;20084;-79
2022/11/15 08:02:07;;;;;;;53.45;32.03;;;;;;;;;;5002186;28;20052;-79
2022/11/15 08:04:49;;;;;;;54.72;32.22;;;;;;;;;;4984477;28;20070;-79
2022/11/15 08:07:17;;;;;;;51.10;32.10;;;;;;;;;;4988025;28;20057;-80
2022/11/15 08:09:43;;;;;;;51.90;32.20;;;;;;;;;;4989466;28;20022;-80
2022/11/15 08:15:31;;;;;;;57.75;32.55;;;;;;;;;;5002926;28;20030;-79
2022/11/15 08:18:01;;;;;;;55.53;33.47;;;;;;;;;;4998269;28;20080;-79
2022/11/15 08:20:36;;;;;;;60.65;33.28;;;;;;;;;;5010073;28;20392;-78
2022/11/15 08:23:37;;;;;;;58.75;33.25;;;;;;;;;;4994638;28;20101;-77
2022/11/15 08:26:06;;;;;;;;;;;;;;;;;;4972681;28;20112;-79
2022/11/15 08:28:49;;;;;;;51.17;31.10;;;;;;;;;;4978929;28;20574;-78
2022/11/15 08:31:19;;;;;;;49.10;31.00;;;;;;;;;;4999476;28;20101;-77
2022/11/15 08:33:48;;;;;;;47.45;30.30;;;;;;;;;;4993439;28;20017;-79
2022/11/15 08:36:15;;;;;;;45.20;28.83;;;;;;;;;;5027938;28;20041;-80
2022/11/15 08:38:41;;;;;;;41.97;27.63;;;;;;;;;;5018513;28;20068;-79
2022/11/15 08:41:46;;;;;;;42.33;25.38;;;;;;;;;;5011903;28;20034;-77
2022/11/15 08:47:46;;;;;;;36.28;25.50;;;;;;;;;;5011796;28;20163;-79
2022/11/15 08:57:24;;;;;;;;;;;;;;;;;;;;;
2022/11/15 09:00:13;;;;;;;38.25;23.73;;;;;;;;;;4899717;29;20042;-78
2022/11/15 09:13:15;;;;;;;;;;;;;;;;;;;;;
2022/11/15 09:18:55;;;;;;;;;;;;;;;;;;;;;
2022/11/15 09:25:11;;;;;;;;;;;;;;;;;;;;;
2022/11/15 09:28:12;;;;;;;41.20;24.13;;;;;;;;;;4856718;29;20093;-82
2022/11/15 09:30:38;;;;;;;40.83;25.05;;;;;;;;;;4881894;28;20038;-81
2022/11/15 09:33:13;;;;;;;40.63;24.63;;;;;;;;;;4949542;29;20051;-78
2022/11/15 09:35:50;;;;;;;41.10;24.20;;;;;;;;;;4931682;29;20039;-78
2022/11/15 09:41:09;;;;;;;39.03;24.27;;;;;;;;;;5153062;22;20060;-79
2022/11/15 09:43:59;;;;;;;41.92;25.58;;;;;;;;;;5024727;28;20550;-79
2022/11/15 09:46:42;;;;;;;36.35;23.83;;;;;;;;;;5030525;28;20089;-78
2022/11/15 09:55:08;;;;;;;38.78;23.30;;;;;;;;;;4949260;28;20515;-77
2022/11/15 09:57:39;;;;;;;36.70;24.48;;;;;;;;;;4968423;28;20038;-79
2022/11/15 10:00:52;;;;;;;40.63;24.25;;;;;;;;;;5010375;28;20037;-77
2022/11/15 10:06:30;;;;;;;41.92;25.58;;;;;;;;;;4969061;28;20037;-80
2022/11/15 10:21:59;;;;;;;41.60;24.25;;;;;;;;;;5033625;28;20037;-79
2022/11/15 10:37:06;;;;;;;38.22;22.75;;;;;;;;;;4998381;28;20037;-79
2022/11/15 10:39:48;;;;;;;42.15;23.35;;;;;;;;;;4998339;28;20058;-79
2022/11/15 10:45:23;;;;;;;36.90;23.15;;;;;;;;;;5006198;28;20119;-79
2022/11/15 10:48:08;;;;;;;38.35;23.23;;;;;;;;;;4997417;28;20480;-80
2022/11/15 10:50:54;;;;;;;35.65;22.38;;;;;;;;;;4964990;28;20072;-78
2022/11/15 10:54:05;;;;;;;38.00;24.65;;;;;;;;;;5004088;28;20019;-78
2022/11/15 10:56:41;;;;;;;40.65;23.73;;;;;;;;;;4993401;28;20041;-80
2022/11/15 10:59:28;;;;;;;38.00;24.98;;;;;;;;;;5001531;28;20064;-78
2022/11/15 11:02:13;;;;;;;;;;;;;;;;;;;;;
2022/11/15 11:05:17;;;;;;;34.53;23.42;;;;;;;;;;4989152;28;20057;-80
2022/11/15 11:24:50;;;;;;;33.92;22.08;;;;;;;;;;5029040;28;20066;-78
2022/11/15 11:27:35;;;;;;;32.17;22.42;;;;;;;;;;4991254;28;20038;-80
2022/11/15 11:30:23;;;;;;;35.75;23.35;;;;;;;;;;5003478;28;20061;-78
2022/11/15 11:35:38;;;;;;;32.90;22.00;;;;;;;;;;5019728;22;20052;-75
2022/11/15 11:38:25;;;;;;;33.25;21.75;;;;;;;;;;4996322;28;20385;-76
2022/11/15 11:41:07;;;;;;;35.03;22.17;;;;;;;;;;4988615;28;20018;-77
2022/11/15 11:43:45;;;;;;;33.88;22.40;;;;;;;;;;4986000;28;20286;-76
2022/11/15 11:46:23;;;;;;;35.42;21.38;;;;;;;;;;4978611;28;20381;-77
2022/11/15 11:49:11;;;;;;;30.83;20.50;;;;;;;;;;4987367;28;20083;-76
2022/11/15 11:51:55;;;;;;;32.80;21.67;;;;;;;;;;4987672;28;20022;-78
2022/11/15 11:54:26;;;;;;;34.60;22.70;;;;;;;;;;4992228;28;20038;-78
2022/11/15 11:57:03;;;;;;;;;;;;;;;;;;;;;
2022/11/15 11:59:51;;;;;;;33.33;20.58;;;;;;;;;;5001005;28;20030;-81
2022/11/15 12:02:20;;;;;;;35.08;21.95;;;;;;;;;;5008483;28;20088;-77
2022/11/15 12:04:50;;;;;;;30.30;19.98;;;;;;;;;;4979420;28;20026;-75
2022/11/15 12:07:28;;;;;;;37.08;21.40;;;;;;;;;;4984101;28;20401;-74
2022/11/15 12:09:54;;;;;;;34.95;21.75;;;;;;;;;;4978938;28;20050;-76
2022/11/15 12:12:37;;;;;;;35.40;21.10;;;;;;;;;;5008244;28;20484;-75
2022/11/15 12:15:03;;;;;;;33.78;21.40;;;;;;;;;;4980954;28;20029;-74
2022/11/15 12:17:33;;;;;;;34.95;22.02;;;;;;;;;;4982192;28;20081;-75
2022/11/15 12:20:00;;;;;;;36.58;23.05;;;;;;;;;;4975237;28;20496;-75
2022/11/15 12:22:29;;;;;;;39.33;22.58;;;;;;;;;;4990619;28;20380;-75
2022/11/15 12:24:58;;;;;;;35.22;22.30;;;;;;;;;;4980608;28;20152;-75
2022/11/15 12:27:27;;;;;;;35.78;22.52;;;;;;;;;;4984251;28;20073;-74
2022/11/15 12:30:13;;;;;;;35.33;22.52;;;;;;;;;;4989664;28;20022;-75
2022/11/15 12:32:49;;;;;;;31.33;21.80;;;;;;;;;;4978714;28;20022;-74
2022/11/15 12:35:45;;;;;;;35.42;20.23;;;;;;;;;;4984558;28;20073;-74
2022/11/15 12:38:50;;;;;;;;;;;;;;;;;;;;;
2022/11/15 12:41:24;;;;;;;31.58;19.63;;;;;;;;;;4973551;28;20031;-78
2022/11/15 12:44:51;;;;;;;33.70;20.50;;;;;;;;;;5126326;22;20021;-75
2022/11/15 12:50:51;;;;;;;35.55;21.85;;;;;;;;;;4967807;28;20495;-78
2022/11/15 12:57:14;;;;;;;38.75;22.25;;;;;;;;;;4876427;29;20124;-78
2022/11/15 13:12:19;;;;;;;;;;;;;;;;;;;;;
2022/11/15 13:20:48;;;;;;;34.88;22.10;;;;;;;;;;5015653;28;20083;-79
2022/11/15 13:31:33;;;;;;;35.53;21.23;;;;;;;;;;1316767;23;20338;-76
2022/11/15 13:34:36;;;;;;;34.13;20.98;;;;;;;;;;4954010;28;20081;-78
2022/11/15 13:37:08;;;;;;;33.40;20.73;;;;;;;;;;4967541;28;20759;-78
2022/11/15 13:39:44;;;;;;;35.65;21.58;;;;;;;;;;4962573;28;20045;-76
2022/11/15 13:42:49;;;;;;;36.50;22.42;;;;;;;;;;4958566;28;20043;-77
2022/11/15 13:45:43;;;;;;;;;;;;;;;;;;;;;
2022/11/15 13:57:30;;;;;;;38.17;23.33;;;;;;;;;;5016576;28;20488;-76
2022/11/15 14:00:13;;;;;;;33.00;23.17;;;;;;;;;;5009365;28;20072;-77
2022/11/15 14:02:45;;;;;;;34.53;22.30;;;;;;;;;;4997557;28;20021;-76
2022/11/15 14:05:14;;;;;;;37.20;23.08;;;;;;;;;;5012815;28;20025;-78
2022/11/15 14:07:40;;;;;;;36.22;23.02;;;;;;;;;;5008553;28;20034;-76
2022/11/15 14:10:25;;;;;;;35.17;22.40;;;;;;;;;;5002848;28;20033;-75
2022/11/15 14:12:52;;;;;;;40.70;24.60;;;;;;;;;;4988214;28;20022;-76
2022/11/15 14:15:25;;;;;;;34.95;22.73;;;;;;;;;;5017002;28;20055;-78
2022/11/15 14:17:51;;;;;;;37.78;24.52;;;;;;;;;;5009661;28;20404;-75
2022/11/15 14:20:32;;;;;;;39.67;23.98;;;;;;;;;;5012973;28;20029;-76
2022/11/15 14:23:08;;;;;;;35.55;23.00;;;;;;;;;;5015463;28;20021;-76
2022/11/15 14:25:35;;;;;;;35.22;22.45;;;;;;;;;;5032448;28;20026;-78
2022/11/15 14:28:20;;;;;;;36.53;23.73;;;;;;;;;;5010335;28;20032;-78
2022/11/15 14:30:53;;;;;;;39.53;24.45;;;;;;;;;;4994033;28;20023;-77
2022/11/15 14:33:19;;;;;;;34.75;22.73;;;;;;;;;;4975508;28;20041;-79
2022/11/15 14:35:51;;;;;;;39.88;23.48;;;;;;;;;;4994934;28;20034;-78
2022/11/15 14:38:17;;;;;;;33.88;23.30;;;;;;;;;;5028707;28;20033;-77
2022/11/15 14:40:43;;;;;;;40.33;23.95;;;;;;;;;;5013047;28;20048;-79
2022/11/15 14:43:11;;;;;;;36.65;23.17;;;;;;;;;;5011673;28;20042;-78
2022/11/15 14:45:37;;;;;;;38.22;23.48;;;;;;;;;;5015028;28;20029;-78
2022/11/15 14:48:08;;;;;;;37.75;22.85;;;;;;;;;;5011062;28;20030;-79
2022/11/15 14:50:35;;;;;;;39.25;23.10;;;;;;;;;;4999149;28;20017;-77
2022/11/15 14:53:10;;;;;;;39.58;24.25;;;;;;;;;;5012677;28;20069;-77
2022/11/15 14:55:39;;;;;;;36.78;22.90;;;;;;;;;;5016125;28;20033;-79
2022/11/15 14:58:11;;;;;;;37.50;23.48;;;;;;;;;;5013320;28;20065;-79
2022/11/15 15:00:39;;;;;;;36.40;23.77;;;;;;;;;;5015796;28;20018;-77
2022/11/15 15:03:32;;;;;;;35.92;23.95;;;;;;;;;;4998008;28;20041;-79
2022/11/15 15:06:39;;;;;;;38.83;23.50;;;;;;;;;;5016500;28;20025;-77
2022/11/15 15:09:05;;;;;;;39.58;23.88;;;;;;;;;;5000583;28;20073;-77
2022/11/15 15:11:49;;;;;;;37.25;23.10;;;;;;;;;;5025389;28;20472;-77
2022/11/15 15:14:16;;;;;;;40.92;25.45;;;;;;;;;;5012063;28;20423;-77
2022/11/15 15:17:03;;;;;;;49.83;26.05;;;;;;;;;;5016966;28;20025;-79
2022/11/15 15:19:29;;;;;;;38.25;23.13;;;;;;;;;;5013844;28;20048;-78
2022/11/15 15:21:56;;;;;;;44.13;25.05;;;;;;;;;;5015174;28;20038;-78
2022/11/15 15:24:25;;;;;;;38.28;23.63;;;;;;;;;;5013332;28;20634;-78
2022/11/15 15:26:57;;;;;;;38.08;23.65;;;;;;;;;;5011917;28;20080;-80
2022/11/15 15:29:26;;;;;;;;;;;;;;;;;;5012215;28;20018;-78
2022/11/15 15:32:21;;;;;;;;;;;;;;;;;;;;;
2022/11/15 15:35:00;;;;;;;39.22;24.05;;;;;;;;;;5003214;28;20034;-77
2022/11/15 15:37:32;;;;;;;39.00;22.90;;;;;;;;;;5021064;28;20117;-79
2022/11/15 15:40:02;;;;;;;41.50;23.92;;;;;;;;;;5014048;28;20028;-78
2022/11/15 15:42:32;;;;;;;38.42;22.52;;;;;;;;;;5016093;28;20025;-78
2022/11/15 15:45:19;;;;;;;41.40;24.25;;;;;;;;;;5031624;28;20403;-79
2022/11/15 15:47:49;;;;;;;39.17;24.92;;;;;;;;;;5017512;28;20587;-78
2022/11/15 15:50:26;;;;;;;43.47;24.00;;;;;;;;;;5011521;28;20080;-81
2022/11/15 15:52:59;;;;;;;37.97;24.52;;;;;;;;;;5013780;28;20044;-78
2022/11/15 15:55:50;;;;;;;43.78;25.65;;;;;;;;;;5015698;28;20039;-78
2022/11/15 15:58:58;;;;;;;;;;;;;;;;;;;;;
2022/11/15 16:15:43;;;;;;;41.08;25.17;;;;;;;;;;5128801;22;20060;-77
2022/11/15 16:21:31;;;;;;;43.55;24.88;;;;;;;;;;4910659;29;20036;-76
2022/11/15 16:24:05;;;;;;;42.22;24.60;;;;;;;;;;5011766;28;20037;-77
2022/11/15 16:26:33;;;;;;;48.58;27.48;;;;;;;;;;5012188;28;20034;-78
2022/11/15 16:29:17;;;;;;;43.72;26.77;;;;;;;;;;5010282;28;20447;-76
2022/11/15 16:31:52;;;;;;;43.78;27.30;;;;;;;;;;5014138;28;20128;-76
2022/11/15 16:34:36;;;;;;;43.55;25.65;;;;;;;;;;5012517;28;20503;-77
2022/11/15 16:39:48;;;;;;;42.90;25.90;;;;;;;;;;5027368;28;20034;-78
2022/11/15 16:42:28;;;;;;;46.35;26.65;;;;;;;;;;5019070;28;20037;-78
2022/11/15 16:44:59;;;;;;;44.08;25.08;;;;;;;;;;5029486;28;20018;-77
2022/11/15 16:47:52;;;;;;;38.17;23.55;;;;;;;;;;5021793;28;20545;-75
2022/11/15 16:53:14;;;;;;;42.60;24.92;;;;;;;;;;5026930;28;20033;-76
2022/11/15 16:55:40;;;;;;;41.65;23.83;;;;;;;;;;5018128;28;20079;-76
2022/11/15 16:58:06;;;;;;;39.80;25.33;;;;;;;;;;5018237;28;20040;-76
2022/11/15 17:00:32;;;;;;;43.00;23.95;;;;;;;;;;5032654;28;20026;-75
2022/11/15 17:02:58;;;;;;;42.30;24.98;;;;;;;;;;5020834;28;20550;-75
2022/11/15 17:05:26;;;;;;;42.85;25.40;;;;;;;;;;5020760;28;20034;-77
2022/11/15 17:07:55;;;;;;;44.55;24.17;;;;;;;;;;5027969;28;20025;-76
2022/11/15 17:10:22;;;;;;;42.50;24.52;;;;;;;;;;5001523;28;20443;-76
2022/11/15 17:13:02;;;;;;;45.28;24.73;;;;;;;;;;5019642;28;20029;-78
2022/11/15 17:15:57;;;;;;;42.28;26.35;;;;;;;;;;5026566;28;20058;-77
2022/11/15 17:18:23;;;;;;;42.00;26.13;;;;;;;;;;5016801;28;20514;-76
2022/11/15 17:20:55;;;;;;;38.88;22.38;;;;;;;;;;5018257;28;20049;-78
2022/11/15 17:23:33;;;;;;;46.05;26.80;;;;;;;;;;5021277;28;20101;-76
2022/11/15 17:26:33;;;;;;;;;;;;;;;;;;;;;
2022/11/15 17:29:36;;;;;;;46.42;25.40;;;;;;;;;;5005728;28;20025;-81
2022/11/15 17:32:13;;;;;;;42.00;24.73;;;;;;;;;;4933747;29;20035;-78
2022/11/15 17:37:56;;;;;;;42.90;25.60;;;;;;;;;;5028213;28;20065;-79
2022/11/15 17:43:56;;;;;;;;;;;;;;;;;;;;;
2022/11/15 17:46:35;;;;;;;47.92;26.08;;;;;;;;;;4974519;28;20138;-79
2022/11/15 17:49:04;;;;;;;46.80;27.08;;;;;;;;;;4981596;28;20046;-78
2022/11/15 17:51:30;;;;;;;49.85;26.88;;;;;;;;;;5007580;28;20476;-79
2022/11/15 17:53:56;;;;;;;45.28;26.25;;;;;;;;;;4994724;28;20027;-78
2022/11/15 17:56:25;;;;;;;43.80;27.15;;;;;;;;;;4997297;28;20022;-79
2022/11/15 17:58:52;;;;;;;49.65;27.65;;;;;;;;;;5010380;28;20030;-78
2022/11/15 18:01:59;;;;;;;44.80;26.30;;;;;;;;;;5006594;28;20416;-79
2022/11/15 18:04:34;;;;;;;45.25;26.83;;;;;;;;;;4958957;28;20219;-78
2022/11/15 18:07:21;;;;;;;48.38;26.00;;;;;;;;;;5003163;28;20041;-78
2022/11/15 18:09:54;;;;;;;42.13;26.00;;;;;;;;;;4989784;28;20030;-79
2022/11/15 18:12:41;;;;;;;50.00;27.38;;;;;;;;;;4995901;28;20026;-78
2022/11/15 18:15:20;;;;;;;44.35;26.52;;;;;;;;;;4992593;28;20027;-78
2022/11/15 18:18:06;;;;;;;47.58;27.40;;;;;;;;;;5006102;28;20017;-78
2022/11/15 18:20:32;;;;;;;51.25;27.67;;;;;;;;;;4992410;28;20053;-81
2022/11/15 18:23:07;;;;;;;48.35;26.20;;;;;;;;;;5000567;28;20042;-79
2022/11/15 18:25:36;;;;;;;49.35;27.63;;;;;;;;;;4992013;28;20027;-78
2022/11/15 18:28:16;;;;;;;42.80;26.42;;;;;;;;;;4996740;28;20045;-77
2022/11/15 18:30:57;;;;;;;47.40;26.15;;;;;;;;;;4983048;28;20030;-77
2022/11/15 18:36:17;;;;;;;49.75;25.83;;;;;;;;;;5022608;22;20049;-77
2022/11/15 18:47:40;;;;;;;54.15;29.13;;;;;;;;;;5012836;28;20057;-81
2022/11/15 18:50:24;;;;;;;50.28;27.95;;;;;;;;;;4985998;28;20086;-81
2022/11/15 18:56:11;;;;;;;51.88;27.85;;;;;;;;;;5003964;28;20108;-84
2022/11/15 18:58:41;;;;;;;48.38;26.00;;;;;;;;;;4984827;28;20360;-80
2022/11/15 19:01:28;;;;;;;50.60;26.63;;;;;;;;;;4997327;28;20090;-81
2022/11/15 19:04:23;;;;;;;53.53;28.25;;;;;;;;;;4998268;28;20936;-81
2022/11/15 19:06:52;;;;;;;46.78;26.33;;;;;;;;;;4993060;28;20071;-83
2022/11/15 19:12:29;;;;;;;44.80;26.05;;;;;;;;;;4992356;28;20014;-82
2022/11/15 19:15:05;;;;;;;48.75;26.25;;;;;;;;;;5001741;28;20065;-80
2022/11/15 19:17:34;;;;;;;44.67;26.83;;;;;;;;;;5008250;28;20109;-80
2022/11/15 19:20:18;;;;;;;46.88;26.85;;;;;;;;;;5000347;28;20049;-80
2022/11/15 19:22:44;;;;;;;49.78;25.40;;;;;;;;;;4986913;28;20036;-82
2022/11/15 19:25:13;;;;;;;46.00;26.20;;;;;;;;;;4995523;28;20583;-81
2022/11/15 19:28:13;;;;;;;;;;;;;;;;;;;;;
2022/11/15 19:30:39;;;;;;;50.88;26.33;;;;;;;;;;5000648;28;20109;-81
2022/11/15 19:33:13;;;;;;;53.40;27.52;;;;;;;;;;5016866;28;20053;-83
2022/11/15 19:35:45;;;;;;;51.65;29.35;;;;;;;;;;5013051;28;20030;-83
2022/11/15 19:38:11;;;;;;;47.03;27.02;;;;;;;;;;5026303;28;20026;-83
2022/11/15 19:46:34;;;;;;;43.10;24.40;;;;;;;;;;5304952;22;20164;-82
2022/11/15 19:49:24;;;;;;;46.33;25.88;;;;;;;;;;4987476;28;20042;-83
2022/11/15 19:52:07;;;;;;;;;;;;;;;;;;;;;
2022/11/15 19:57:58;;;;;;;48.38;25.77;;;;;;;;;;4970208;28;20041;-81
2022/11/15 20:00:28;;;;;;;48.58;25.63;;;;;;;;;;5017876;28;20082;-82
2022/11/15 20:02:54;;;;;;;48.38;25.80;;;;;;;;;;5029838;28;20121;-83
2022/11/15 20:05:23;;;;;;;45.05;25.30;;;;;;;;;;5007468;28;20165;-80
2022/11/15 20:07:58;;;;;;;48.55;28.17;;;;;;;;;;4982953;28;20050;-80
2022/11/15 20:10:28;;;;;;;46.08;26.27;;;;;;;;;;4997416;28;20137;-81
2022/11/15 20:12:58;;;;;;;46.83;25.15;;;;;;;;;;5016891;28;20022;-80
2022/11/15 20:15:26;;;;;;;44.67;24.73;;;;;;;;;;5005752;22;20513;-79
2022/11/15 20:17:52;;;;;;;45.72;23.23;;;;;;;;;;4978775;28;20042;-80
2022/11/15 20:20:18;;;;;;;42.92;23.90;;;;;;;;;;4992917;28;20026;-80
2022/11/15 20:22:51;;;;;;;48.75;24.35;;;;;;;;;;4963528;28;20562;-79
2022/11/15 20:25:20;;;;;;;39.67;22.40;;;;;;;;;;4967665;28;20023;-80
2022/11/15 20:27:48;;;;;;;42.38;22.65;;;;;;;;;;5011980;22;20381;-75
2022/11/15 20:30:14;;;;;;;45.53;22.45;;;;;;;;;;5007604;28;20112;-76
2022/11/15 20:32:40;;;;;;;44.10;23.52;;;;;;;;;;4996709;28;20469;-75
2022/11/15 20:35:16;;;;;;;38.58;22.40;;;;;;;;;;5004188;28;20062;-76
2022/11/15 20:41:07;;;;;;;36.72;21.50;;;;;;;;;;4950904;28;20052;-79
2022/11/15 20:43:40;;;;;;;42.63;21.60;;;;;;;;;;5011608;28;20018;-75
2022/11/15 20:46:34;;;;;;;39.88;21.67;;;;;;;;;;5010133;28;20053;-75
2022/11/15 20:49:05;;;;;;;40.38;22.50;;;;;;;;;;4986128;28;20022;-77
2022/11/15 20:51:47;;;;;;;34.80;21.15;;;;;;;;;;5000402;28;20029;-77
2022/11/15 20:54:13;;;;;;;35.72;20.65;;;;;;;;;;4973251;28;20038;-78
2022/11/15 20:56:39;;;;;;;34.85;19.80;;;;;;;;;;5005855;28;20023;-77
2022/11/15 20:59:08;;;;;;;32.55;20.08;;;;;;;;;;4991202;28;20077;-77
2022/11/15 21:01:42;;;;;;;35.08;20.00;;;;;;;;;;4990593;28;20030;-79
2022/11/15 21:04:08;;;;;;;42.45;22.65;;;;;;;;;;5006487;28;20061;-78
2022/11/15 21:06:34;;;;;;;38.10;21.08;;;;;;;;;;4992430;28;20440;-79
2022/11/15 21:14:29;;;;;;;40.45;21.65;;;;;;;;;;5010901;28;20558;-77
2022/11/15 21:16:55;;;;;;;33.58;21.23;;;;;;;;;;5003826;28;20535;-75
2022/11/15 21:19:22;;;;;;;35.75;20.48;;;;;;;;;;4989725;28;20030;-79
2022/11/15 21:21:48;;;;;;;32.72;19.58;;;;;;;;;;5007199;28;20029;-78
2022/11/15 21:24:14;;;;;;;38.75;21.77;;;;;;;;;;4998076;28;20408;-77
2022/11/15 21:26:40;;;;;;;40.40;21.63;;;;;;;;;;4994977;28;20128;-76
2022/11/15 21:29:06;;;;;;;37.60;20.58;;;;;;;;;;4994958;28;20034;-78
2022/11/15 21:31:37;;;;;;;34.80;20.27;;;;;;;;;;4991092;28;20034;-76
2022/11/15 21:34:06;;;;;;;39.60;21.23;;;;;;;;;;4992117;28;20089;-77
2022/11/15 21:36:37;;;;;;;37.90;22.23;;;;;;;;;;5011840;28;20034;-79
2022/11/15 21:39:09;;;;;;;34.88;20.30;;;;;;;;;;5034718;22;20045;-77
2022/11/15 21:41:39;;;;;;;36.95;20.70;;;;;;;;;;5035468;28;20029;-74
2022/11/15 21:44:15;;;;;;;38.05;20.38;;;;;;;;;;5047307;28;20102;-76
2022/11/15 21:46:47;;;;;;;38.80;20.38;;;;;;;;;;5006805;28;20052;-77
2022/11/15 21:49:13;;;;;;;39.50;20.60;;;;;;;;;;5032978;28;20053;-76
2022/11/15 21:51:40;;;;;;;36.03;21.00;;;;;;;;;;5034476;28;20045;-76
2022/11/15 21:54:09;;;;;;;35.88;19.55;;;;;;;;;;5038039;28;20447;-77
2022/11/15 21:56:35;;;;;;;36.65;20.17;;;;;;;;;;5034064;28;20032;-79
2022/11/15 21:59:01;;;;;;;35.20;20.67;;;;;;;;;;5032858;28;20031;-76
2022/11/15 22:04:13;;;;;;;36.47;20.40;;;;;;;;;;5050191;28;20052;-77
2022/11/15 22:06:40;;;;;;;40.78;20.52;;;;;;;;;;5038397;28;20017;-76
2022/11/15 22:09:08;;;;;;;36.47;20.05;;;;;;;;;;5032239;28;20025;-79
2022/11/15 22:11:34;;;;;;;38.30;21.73;;;;;;;;;;5028669;28;20074;-79
2022/11/15 22:14:01;;;;;;;37.42;20.38;;;;;;;;;;5038812;28;20026;-78
2022/11/15 22:16:27;;;;;;;34.38;19.67;;;;;;;;;;5050817;28;20029;-78
2022/11/15 22:18:53;;;;;;;34.28;20.15;;;;;;;;;;5040409;28;20017;-76
2022/11/15 22:21:19;;;;;;;35.22;19.40;;;;;;;;;;5037516;28;20035;-77
2022/11/15 22:23:45;;;;;;;34.90;20.98;;;;;;;;;;5032969;28;20029;-76
2022/11/15 22:26:12;;;;;;;35.58;19.58;;;;;;;;;;5051298;28;20058;-77
2022/11/15 22:28:39;;;;;;;32.15;18.83;;;;;;;;;;5034224;28;20121;-78
2022/11/15 22:31:05;;;;;;;32.40;19.58;;;;;;;;;;5036757;28;20474;-76
2022/11/15 22:33:31;;;;;;;36.03;20.80;;;;;;;;;;5031798;28;20026;-76
2022/11/15 22:35:58;;;;;;;32.30;19.58;;;;;;;;;;5036006;28;20511;-78
2022/11/15 22:38:24;;;;;;;36.67;20.90;;;;;;;;;;5034082;28;20041;-79
2022/11/15 22:40:59;;;;;;;32.70;20.10;;;;;;;;;;5036955;28;20017;-78
2022/11/15 22:46:29;;;;;;;31.83;19.25;;;;;;;;;;5050744;28;20115;-77
2022/11/15 22:48:55;;;;;;;33.63;21.27;;;;;;;;;;5035525;28;20398;-78
2022/11/15 22:51:21;;;;;;;29.95;18.30;;;;;;;;;;5044218;28;20018;-78
2022/11/15 22:53:47;;;;;;;33.08;20.05;;;;;;;;;;5047801;28;20029;-79
2022/11/15 22:56:13;;;;;;;31.48;19.63;;;;;;;;;;5037144;28;20025;-78
2022/11/15 22:58:39;;;;;;;34.25;18.48;;;;;;;;;;5053266;28;20026;-78
2022/11/15 23:01:05;;;;;;;33.38;19.42;;;;;;;;;;5045641;28;20033;-78
2022/11/15 23:03:32;;;;;;;31.83;18.98;;;;;;;;;;5045531;28;20059;-78
2022/11/15 23:06:03;;;;;;;30.20;17.67;;;;;;;;;;5054396;28;20075;-78
2022/11/15 23:08:29;;;;;;;37.28;20.65;;;;;;;;;;5049460;28;20383;-77
2022/11/15 23:13:40;;;;;;;28.63;16.65;;;;;;;;;;5053452;28;20721;-77
2022/11/15 23:16:24;;;;;;;31.58;18.85;;;;;;;;;;5032105;28;20025;-79
2022/11/15 23:18:54;;;;;;;33.67;19.50;;;;;;;;;;5031055;28;20032;-78
2022/11/15 23:24:08;;;;;;;32.30;19.25;;;;;;;;;;5036982;28;20048;-77
2022/11/15 23:26:35;;;;;;;32.83;19.15;;;;;;;;;;5037002;28;20483;-77
2022/11/15 23:29:01;;;;;;;29.30;17.98;;;;;;;;;;5030861;28;20027;-77
2022/11/15 23:34:11;;;;;;;26.55;16.45;;;;;;;;;;5036345;28;20525;-77
2022/11/15 23:36:39;;;;;;;30.60;17.85;;;;;;;;;;5033748;28;20036;-77
2022/11/15 23:39:05;;;;;;;27.33;16.92;;;;;;;;;;5034308;28;20037;-79
2022/11/15 23:41:31;;;;;;;31.67;17.60;;;;;;;;;;5026605;28;20075;-78
2022/11/15 23:43:57;;;;;;;28.98;16.83;;;;;;;;;;5051303;28;20025;-77
2022/11/15 23:46:23;;;;;;;26.63;16.20;;;;;;;;;;5050101;28;20027;-77
2022/11/15 23:48:49;;;;;;;22.52;15.25;;;;;;;;;;5034580;28;20487;-77
2022/11/15 23:51:15;;;;;;;28.35;17.02;;;;;;;;;;5030616;28;20030;-76
2022/11/15 23:53:42;;;;;;;27.27;16.80;;;;;;;;;;5048083;28;20032;-76
2022/11/15 23:56:12;;;;;;;25.75;16.52;;;;;;;;;;5031588;28;20553;-75
2022/11/15 23:58:38;;;;;;;26.98;16.42;;;;;;;;;;5034049;28;20056;-76
